Orgas, West Virginia
Current Conditions -  °F | °C
As of 4:54 AM on Thursday 18 Dec 2014 (Local Time) from KCRW Reporting Station
Overcast Overcast  
Wind Chill: 22°   Ceiling: 2500
Heat Index: 30°   Visibility: 10mi
Dew Point: 21°   Wind: 8mph
Humidity: 69%   Direction: 340°NNW
Pressure: 30.23"   Gusts: NA
Location:  38.06°N, 81.57°W
Report Text: KCRW 180954Z 34007KT 10SM OVC025 M01/M06 A3023 RMK AO2 SLP243 T10111061
Loading
Personal Weather Stations






























Interactive Weather Map New forecast layout! Learn more

10-Day Weather Forecast

Advertisements
Track Severe Weather on mobile